createdAt,value
2018-06-18T00:00:22.332Z,0
2018-06-18T00:01:22.252Z,0
2018-06-18T00:02:22.247Z,0
2018-06-18T00:03:22.517Z,0
2018-06-18T00:04:22.760Z,0
2018-06-18T00:05:22.576Z,0
2018-06-18T00:06:22.224Z,0
2018-06-18T00:07:22.249Z,0
2018-06-18T00:08:22.247Z,0
2018-06-18T00:09:22.256Z,0
2018-06-18T00:10:22.277Z,0
2018-06-18T00:11:21.999Z,0
2018-06-18T00:12:22.256Z,0
2018-06-18T00:13:22.175Z,0
2018-06-18T00:14:22.531Z,0
2018-06-18T00:15:22.786Z,0
2018-06-18T00:16:22.259Z,0
2018-06-18T00:17:22.247Z,0
2018-06-18T00:18:22.514Z,0
2018-06-18T00:19:21.773Z,0
2018-06-18T00:20:22.559Z,0
2018-06-18T00:21:22.254Z,0
2018-06-18T00:22:22.254Z,0
2018-06-18T00:23:22.514Z,0
2018-06-18T00:24:22.550Z,0
2018-06-18T00:25:22.803Z,0
2018-06-18T00:26:22.350Z,0
2018-06-18T00:27:22.531Z,0
2018-06-18T00:28:22.255Z,0
2018-06-18T00:29:22.014Z,0
2018-06-18T00:30:22.065Z,0
2018-06-18T00:31:22.278Z,0
2018-06-18T00:32:22.269Z,0
2018-06-18T00:33:22.535Z,0
2018-06-18T00:34:22.018Z,0
2018-06-18T00:35:22.339Z,0
2018-06-18T00:36:22.533Z,0
2018-06-18T00:37:22.293Z,0
2018-06-18T00:38:22.527Z,0
2018-06-18T00:39:22.074Z,0
2018-06-18T00:40:21.803Z,0
2018-06-18T00:41:22.286Z,0
2018-06-18T00:42:22.539Z,0
2018-06-18T00:43:22.856Z,0
2018-06-18T00:44:22.286Z,0
2018-06-18T00:45:22.435Z,0
2018-06-18T00:46:22.525Z,0
2018-06-18T00:47:22.796Z,0
2018-06-18T00:48:22.778Z,0
2018-06-18T00:49:22.040Z,0
2018-06-18T00:50:22.591Z,0
2018-06-18T00:51:22.842Z,0
2018-06-18T00:52:22.300Z,0
2018-06-18T00:53:22.288Z,0
2018-06-18T00:54:22.543Z,0
2018-06-18T00:55:22.304Z,0
2018-06-18T00:56:22.821Z,0
2018-06-18T00:57:27.103Z,0
2018-06-18T00:58:22.040Z,0
2018-06-18T00:59:22.295Z,0
2018-06-18T01:00:22.335Z,0
2018-06-18T01:01:22.045Z,0
2018-06-18T01:02:23.394Z,0
2018-06-18T01:03:22.816Z,0
2018-06-18T01:04:22.594Z,0
2018-06-18T01:05:22.162Z,0
2018-06-18T01:06:22.055Z,0
2018-06-18T01:07:22.582Z,0
2018-06-18T01:08:22.574Z,0
2018-06-18T01:09:22.336Z,0
2018-06-18T01:10:22.391Z,0
2018-06-18T01:11:22.659Z,0
2018-06-18T01:12:22.577Z,0
2018-06-18T01:13:22.312Z,0
2018-06-18T01:14:22.065Z,0
2018-06-18T01:15:22.573Z,0
2018-06-18T01:16:22.815Z,0
2018-06-18T01:17:22.319Z,0
2018-06-18T01:18:22.822Z,0
2018-06-18T01:19:22.335Z,0
2018-06-18T01:20:22.648Z,0
2018-06-18T01:21:22.333Z,0
2018-06-18T01:22:22.589Z,0
2018-06-18T01:23:22.580Z,0
2018-06-18T01:24:22.067Z,0
2018-06-18T01:25:22.911Z,0
2018-06-18T01:26:22.604Z,0
2018-06-18T01:27:24.092Z,0
2018-06-18T01:28:22.829Z,0
2018-06-18T01:29:22.080Z,0
2018-06-18T01:30:22.462Z,0
2018-06-18T01:31:22.582Z,0
2018-06-18T01:32:22.853Z,0
2018-06-18T01:33:22.584Z,0
2018-06-18T01:34:22.597Z,0
2018-06-18T01:35:22.366Z,0
2018-06-18T01:36:22.610Z,0
2018-06-18T01:37:22.607Z,0
2018-06-18T01:38:21.841Z,0
2018-06-18T01:39:22.600Z,0
2018-06-18T01:40:22.590Z,0
2018-06-18T01:41:22.088Z,0
2018-06-18T01:42:22.628Z,0
2018-06-18T01:43:22.088Z,0
2018-06-18T01:44:22.617Z,0
2018-06-18T01:45:22.914Z,0
2018-06-18T01:46:22.626Z,0
2018-06-18T01:47:22.367Z,0
2018-06-18T01:48:22.606Z,0
2018-06-18T01:49:22.609Z,0
2018-06-18T01:50:22.118Z,0
2018-06-18T01:51:22.860Z,0
2018-06-18T01:52:22.355Z,0
2018-06-18T01:53:22.360Z,0
2018-06-18T01:54:22.367Z,0
2018-06-18T01:55:22.398Z,0
2018-06-18T01:56:22.360Z,0
2018-06-18T01:57:22.136Z,0
2018-06-18T01:58:23.560Z,0
2018-06-18T01:59:22.627Z,0
2018-06-18T02:00:22.695Z,0
2018-06-18T02:01:22.623Z,0
2018-06-18T02:02:22.646Z,0
2018-06-18T02:03:22.368Z,0
2018-06-18T02:04:22.378Z,0
2018-06-18T02:05:22.390Z,0
2018-06-18T02:06:22.619Z,0
2018-06-18T02:07:22.387Z,0
2018-06-18T02:08:22.381Z,0
2018-06-18T02:09:22.404Z,0
2018-06-18T02:10:23.076Z,0
2018-06-18T02:11:22.648Z,0
2018-06-18T02:12:22.621Z,0
2018-06-18T02:13:22.628Z,0
2018-06-18T02:14:21.881Z,0
2018-06-18T02:15:22.212Z,0
2018-06-18T02:16:21.875Z,0
2018-06-18T02:17:22.379Z,0
2018-06-18T02:18:22.640Z,0
2018-06-18T02:19:22.894Z,0
2018-06-18T02:20:22.486Z,0
2018-06-18T02:21:22.134Z,0
2018-06-18T02:22:22.899Z,0
2018-06-18T02:23:22.918Z,0
2018-06-18T02:24:22.391Z,0
2018-06-18T02:25:22.665Z,0
2018-06-18T02:26:22.391Z,0
2018-06-18T02:27:22.467Z,0
2018-06-18T02:28:22.903Z,0
2018-06-18T02:29:21.908Z,0
2018-06-18T02:30:22.744Z,0
2018-06-18T02:31:22.994Z,0
2018-06-18T02:32:22.397Z,0
2018-06-18T02:33:22.654Z,0
2018-06-18T02:34:22.430Z,0
2018-06-18T02:35:22.717Z,0
2018-06-18T02:36:22.917Z,0
2018-06-18T02:37:22.942Z,0
2018-06-18T02:38:22.922Z,0
2018-06-18T02:39:22.676Z,0
2018-06-18T02:40:22.456Z,0
2018-06-18T02:41:22.671Z,0
2018-06-18T02:42:22.669Z,0
2018-06-18T02:43:22.431Z,0
2018-06-18T02:44:22.924Z,0
2018-06-18T02:45:22.717Z,0
2018-06-18T02:46:22.917Z,0
2018-06-18T02:47:22.664Z,0
2018-06-18T02:48:22.414Z,0
2018-06-18T02:49:22.445Z,0
2018-06-18T02:50:22.981Z,0
2018-06-18T02:51:22.670Z,0
2018-06-18T02:52:22.445Z,0
2018-06-18T02:53:22.678Z,0
2018-06-18T02:54:23.009Z,0
2018-06-18T02:55:22.986Z,0
2018-06-18T02:56:22.940Z,0
2018-06-18T02:57:22.672Z,0
2018-06-18T02:58:23.370Z,0
2018-06-18T02:59:22.676Z,0
2018-06-18T03:00:22.818Z,0
2018-06-18T03:01:22.673Z,0
2018-06-18T03:02:22.940Z,0
2018-06-18T03:03:22.426Z,0
2018-06-18T03:04:22.690Z,0
2018-06-18T03:05:22.958Z,0
2018-06-18T03:06:22.699Z,0
2018-06-18T03:07:22.935Z,0
2018-06-18T03:08:22.687Z,0
2018-06-18T03:09:22.466Z,0
2018-06-18T03:10:22.841Z,0
2018-06-18T03:11:22.842Z,0
2018-06-18T03:12:22.730Z,0
2018-06-18T03:13:22.178Z,0
2018-06-18T03:14:22.223Z,0
2018-06-18T03:15:22.284Z,0
2018-06-18T03:16:22.477Z,0
2018-06-18T03:17:22.720Z,0
2018-06-18T03:18:22.477Z,0
2018-06-18T03:19:22.734Z,0
2018-06-18T03:20:22.266Z,0
2018-06-18T03:21:22.975Z,5
2018-06-18T03:22:22.462Z,5
2018-06-18T03:23:22.477Z,5
2018-06-18T03:24:22.216Z,5
2018-06-18T03:25:22.474Z,5
2018-06-18T03:26:22.464Z,5
2018-06-18T03:27:22.705Z,5
2018-06-18T03:28:22.948Z,5
2018-06-18T03:29:22.957Z,5
2018-06-18T03:30:23.001Z,5
2018-06-18T03:31:23.037Z,10
2018-06-18T03:32:22.730Z,10
2018-06-18T03:33:22.461Z,10
2018-06-18T03:34:22.715Z,10
2018-06-18T03:35:22.847Z,10
2018-06-18T03:36:22.709Z,10
2018-06-18T03:37:23.084Z,10
2018-06-18T03:38:22.716Z,10
2018-06-18T03:39:22.956Z,10
2018-06-18T03:40:22.806Z,15
2018-06-18T03:41:22.709Z,15
2018-06-18T03:42:22.714Z,15
2018-06-18T03:43:22.743Z,15
2018-06-18T03:44:22.958Z,20
2018-06-18T03:45:22.512Z,20
2018-06-18T03:46:22.457Z,20
2018-06-18T03:47:22.220Z,20
2018-06-18T03:48:22.488Z,25
2018-06-18T03:49:22.718Z,25
2018-06-18T03:50:23.104Z,25
2018-06-18T03:51:22.476Z,25
2018-06-18T03:52:22.491Z,25
2018-06-18T03:53:22.218Z,25
2018-06-18T03:54:21.973Z,30
2018-06-18T03:55:21.976Z,30
2018-06-18T03:56:22.931Z,30
2018-06-18T03:57:21.985Z,30
2018-06-18T03:58:22.746Z,30
2018-06-18T03:59:22.490Z,35
2018-06-18T04:00:22.493Z,35
2018-06-18T04:01:22.472Z,40
2018-06-18T04:02:22.983Z,45
2018-06-18T04:03:22.494Z,45
2018-06-18T04:04:22.492Z,50
2018-06-18T04:05:23.284Z,50
2018-06-18T04:06:22.495Z,50
2018-06-18T04:07:22.498Z,55
2018-06-18T04:08:22.995Z,60
2018-06-18T04:09:22.496Z,65
2018-06-18T04:10:22.282Z,70
2018-06-18T04:11:22.510Z,75
2018-06-18T04:12:22.903Z,80
2018-06-18T04:13:22.261Z,85
2018-06-18T04:14:22.743Z,90
2018-06-18T04:15:22.809Z,130
2018-06-18T04:16:22.747Z,95
2018-06-18T04:17:23.007Z,95
2018-06-18T04:18:22.998Z,90
2018-06-18T04:19:23.039Z,85
2018-06-18T04:20:22.827Z,85
2018-06-18T04:21:22.521Z,85
2018-06-18T04:22:22.759Z,85
2018-06-18T04:23:23.002Z,85
2018-06-18T04:24:22.756Z,80
2018-06-18T04:25:23.011Z,80
2018-06-18T04:26:22.505Z,80
2018-06-18T04:27:22.762Z,85
2018-06-18T04:28:27.858Z,85
2018-06-18T04:29:22.756Z,85
2018-06-18T04:30:22.757Z,85
2018-06-18T04:31:22.769Z,90
2018-06-18T04:32:22.514Z,90
2018-06-18T04:33:23.016Z,95
2018-06-18T04:34:22.259Z,105
2018-06-18T04:35:22.278Z,105
2018-06-18T04:36:22.261Z,105
2018-06-18T04:37:23.028Z,100
2018-06-18T04:38:22.827Z,105
2018-06-18T04:39:22.758Z,100
2018-06-18T04:40:22.872Z,100
2018-06-18T04:41:23.038Z,105
2018-06-18T04:42:22.274Z,110
2018-06-18T04:43:22.778Z,230
2018-06-18T04:44:22.316Z,290
2018-06-18T04:45:22.641Z,210
2018-06-18T04:46:22.824Z,285
2018-06-18T04:47:22.528Z,350
2018-06-18T04:48:22.547Z,355
2018-06-18T04:49:22.046Z,365
2018-06-18T04:50:23.048Z,380
2018-06-18T04:51:22.549Z,375
2018-06-18T04:52:23.062Z,400
2018-06-18T04:53:22.589Z,415
2018-06-18T04:54:22.303Z,425
2018-06-18T04:55:22.403Z,425
2018-06-18T04:56:23.202Z,390
2018-06-18T04:57:22.815Z,370
2018-06-18T04:58:22.824Z,435
2018-06-18T04:59:22.962Z,465
2018-06-18T05:00:23.109Z,460
2018-06-18T05:01:22.828Z,255
2018-06-18T05:02:22.582Z,240
2018-06-18T05:03:23.097Z,245
2018-06-18T05:04:22.844Z,245
2018-06-18T05:05:22.909Z,245
2018-06-18T05:06:22.874Z,240
2018-06-18T05:07:22.873Z,210
2018-06-18T05:08:22.370Z,210
2018-06-18T05:09:23.923Z,215
2018-06-18T05:10:23.161Z,250
2018-06-18T05:11:23.135Z,295
2018-06-18T05:12:23.128Z,250
2018-06-18T05:13:22.637Z,270
2018-06-18T05:14:22.628Z,275
2018-06-18T05:15:22.944Z,275
2018-06-18T05:16:23.143Z,280
2018-06-18T05:17:23.163Z,290
2018-06-18T05:18:22.659Z,295
2018-06-18T05:19:22.662Z,300
2018-06-18T05:20:22.733Z,295
2018-06-18T05:21:23.181Z,260
2018-06-18T05:22:22.943Z,295
2018-06-18T05:23:22.666Z,230
2018-06-18T05:24:23.218Z,230
2018-06-18T05:25:23.256Z,225
2018-06-18T05:26:23.401Z,235
2018-06-18T05:27:22.438Z,235
2018-06-18T05:28:22.952Z,235
2018-06-18T05:29:23.109Z,255
2018-06-18T05:30:22.986Z,265
2018-06-18T05:31:22.965Z,240
2018-06-18T05:32:23.221Z,240
2018-06-18T05:33:22.716Z,240
2018-06-18T05:34:22.708Z,320
2018-06-18T05:35:23.304Z,280
2018-06-18T05:36:22.974Z,270
2018-06-18T05:37:22.478Z,270
2018-06-18T05:38:22.979Z,255
2018-06-18T05:39:23.225Z,260
2018-06-18T05:40:22.836Z,280
2018-06-18T05:41:22.730Z,265
2018-06-18T05:42:23.301Z,275
2018-06-18T05:43:23.322Z,245
2018-06-18T05:44:23.010Z,255
2018-06-18T05:45:22.844Z,250
2018-06-18T05:46:23.019Z,245
2018-06-18T05:47:22.766Z,250
2018-06-18T05:48:23.019Z,255
2018-06-18T05:49:23.041Z,255
2018-06-18T05:50:23.383Z,255
2018-06-18T05:51:23.254Z,245
2018-06-18T05:52:23.029Z,240
2018-06-18T05:53:22.789Z,240
2018-06-18T05:54:23.060Z,235
2018-06-18T05:55:22.848Z,230
2018-06-18T05:56:22.589Z,225
2018-06-18T05:57:22.806Z,225
2018-06-18T05:58:23.345Z,220
2018-06-18T05:59:23.316Z,220
2018-06-18T06:00:23.403Z,220
2018-06-18T06:01:23.323Z,215
2018-06-18T06:02:22.566Z,215
2018-06-18T06:03:23.084Z,215
2018-06-18T06:04:23.095Z,215
2018-06-18T06:05:23.207Z,215
2018-06-18T06:06:23.101Z,215
2018-06-18T06:07:22.855Z,220
2018-06-18T06:08:23.098Z,220
2018-06-18T06:09:23.357Z,225
2018-06-18T06:10:22.902Z,225
2018-06-18T06:11:23.112Z,230
2018-06-18T06:12:23.158Z,230
2018-06-18T06:13:23.114Z,230
2018-06-18T06:24:05.011Z,245
2018-06-18T06:25:05.534Z,245
2018-06-18T06:26:05.263Z,245
2018-06-18T06:27:05.240Z,245
2018-06-18T06:28:05.507Z,250
2018-06-18T06:29:05.002Z,250
2018-06-18T06:30:05.522Z,255
2018-06-18T06:31:05.523Z,255
2018-06-18T06:32:05.510Z,255
2018-06-18T06:33:05.258Z,260
2018-06-18T06:34:05.569Z,265
2018-06-18T06:35:05.527Z,270
2018-06-18T06:36:05.017Z,270
2018-06-18T06:37:05.276Z,275
2018-06-18T06:38:05.529Z,280
2018-06-18T06:39:05.279Z,285
2018-06-18T06:40:05.544Z,285
2018-06-18T06:41:05.298Z,280
2018-06-18T06:42:05.280Z,280
2018-06-18T06:43:05.282Z,280
2018-06-18T06:44:05.293Z,280
2018-06-18T06:45:04.799Z,275
2018-06-18T06:46:05.548Z,275
2018-06-18T06:47:05.306Z,270
2018-06-18T06:48:05.039Z,265
2018-06-18T06:49:05.942Z,265
2018-06-18T06:50:05.075Z,265
2018-06-18T06:51:05.319Z,260
2018-06-18T06:52:05.309Z,260
2018-06-18T06:53:05.352Z,265
2018-06-18T06:54:05.602Z,265
2018-06-18T06:55:05.328Z,265
2018-06-18T06:56:05.518Z,270
2018-06-18T06:57:05.345Z,270
2018-06-18T06:58:05.091Z,275
2018-06-18T06:59:05.621Z,275
2018-06-18T07:00:05.859Z,275
2018-06-18T07:01:05.611Z,275
2018-06-18T07:02:05.436Z,280
2018-06-18T07:03:05.129Z,280
2018-06-18T07:04:05.371Z,285
2018-06-18T07:05:05.612Z,285
2018-06-18T07:06:05.371Z,280
2018-06-18T07:07:05.880Z,280
2018-06-18T07:08:05.186Z,275
2018-06-18T07:09:05.880Z,280
2018-06-18T07:10:05.634Z,275
2018-06-18T07:11:05.149Z,275
2018-06-18T07:12:05.654Z,270
2018-06-18T07:13:05.899Z,275
2018-06-18T07:14:05.140Z,280
2018-06-18T07:15:05.394Z,280
2018-06-18T07:16:05.912Z,285
2018-06-18T07:17:05.168Z,285
2018-06-18T07:18:05.406Z,285
2018-06-18T07:19:05.671Z,290
2018-06-18T07:20:05.457Z,290
2018-06-18T07:21:05.670Z,295
2018-06-18T07:22:05.184Z,295
2018-06-18T07:23:05.691Z,300
2018-06-18T07:24:05.454Z,300
2018-06-18T07:25:05.944Z,305
2018-06-18T07:26:05.574Z,310
2018-06-18T07:27:05.499Z,310
2018-06-18T07:28:05.194Z,320
2018-06-18T07:29:05.495Z,315
2018-06-18T07:30:05.485Z,315
2018-06-18T07:31:05.943Z,315
2018-06-18T07:32:05.757Z,320
2018-06-18T07:33:05.475Z,320
2018-06-18T07:34:04.969Z,320
2018-06-18T07:35:05.984Z,320
2018-06-18T07:36:05.256Z,320
2018-06-18T07:37:05.984Z,325
2018-06-18T07:38:05.244Z,325
2018-06-18T07:39:05.497Z,330
2018-06-18T07:40:05.742Z,340
2018-06-18T07:41:05.236Z,340
2018-06-18T07:42:05.530Z,345
2018-06-18T07:43:05.779Z,345
2018-06-18T07:44:05.767Z,350
2018-06-18T07:45:05.263Z,355
2018-06-18T07:46:05.794Z,355
2018-06-18T07:47:05.776Z,355
2018-06-18T07:48:05.557Z,365
2018-06-18T07:49:05.561Z,350
2018-06-18T07:50:05.060Z,350
2018-06-18T07:51:05.565Z,350
2018-06-18T07:52:05.798Z,355
2018-06-18T07:53:05.544Z,360
2018-06-18T07:54:05.571Z,370
2018-06-18T07:55:05.325Z,375
2018-06-18T07:56:05.820Z,355
2018-06-18T07:57:05.834Z,355
2018-06-18T07:58:05.409Z,345
2018-06-18T07:59:05.329Z,335
2018-06-18T08:00:05.578Z,335
2018-06-18T08:01:06.099Z,335
2018-06-18T08:02:06.106Z,340
2018-06-18T08:03:05.359Z,340
2018-06-18T08:04:05.946Z,350
2018-06-18T08:05:05.860Z,365
2018-06-18T08:06:05.358Z,350
2018-06-18T08:07:06.147Z,355
2018-06-18T08:08:05.887Z,365
2018-06-18T08:09:05.889Z,395
2018-06-18T08:10:06.175Z,400
2018-06-18T08:11:05.645Z,385
2018-06-18T08:12:06.150Z,400
2018-06-18T08:13:05.395Z,415
2018-06-18T08:14:05.404Z,420
2018-06-18T08:15:05.704Z,445
2018-06-18T08:16:05.402Z,440
2018-06-18T08:17:06.187Z,420
2018-06-18T08:18:05.680Z,355
2018-06-18T08:19:05.478Z,345
2018-06-18T08:20:05.953Z,350
2018-06-18T08:21:05.199Z,385
2018-06-18T08:22:05.708Z,325
2018-06-18T08:23:05.718Z,315
2018-06-18T08:24:05.999Z,350
2018-06-18T08:25:05.821Z,340
2018-06-18T08:26:05.707Z,365
2018-06-18T08:27:06.435Z,570
2018-06-18T08:28:05.781Z,380
2018-06-18T08:29:05.719Z,560
2018-06-18T08:30:06.249Z,365
2018-06-18T08:31:05.240Z,555
2018-06-18T08:32:06.010Z,555
2018-06-18T08:33:06.001Z,575
2018-06-18T08:34:06.032Z,470
2018-06-18T08:35:06.377Z,340
2018-06-18T08:36:06.245Z,480
2018-06-18T08:37:06.019Z,285
2018-06-18T08:38:05.796Z,265
2018-06-18T08:39:06.062Z,265
2018-06-18T08:40:06.072Z,280
2018-06-18T08:41:05.813Z,265
2018-06-18T08:42:06.318Z,265
2018-06-18T08:43:05.565Z,260
2018-06-18T08:44:05.825Z,260
2018-06-18T08:45:06.090Z,260
2018-06-18T08:46:06.104Z,265
2018-06-18T08:47:06.089Z,275
2018-06-18T08:48:06.120Z,415
2018-06-18T08:49:05.616Z,455
2018-06-18T08:50:06.389Z,450
2018-06-18T08:51:05.870Z,270
2018-06-18T08:52:06.126Z,255
2018-06-18T08:53:05.906Z,240
2018-06-18T08:54:05.639Z,235
2018-06-18T08:55:05.628Z,235
2018-06-18T08:56:06.175Z,240
2018-06-18T08:57:06.150Z,260
2018-06-18T08:58:06.500Z,285
2018-06-18T08:59:06.449Z,320
2018-06-18T09:00:06.187Z,425
2018-06-18T09:01:05.691Z,325
2018-06-18T09:02:06.192Z,330
2018-06-18T09:03:05.974Z,390
2018-06-18T09:04:06.173Z,465
2018-06-18T09:05:05.972Z,350
2018-06-18T09:06:05.955Z,425
2018-06-18T09:07:06.196Z,490
2018-06-18T09:08:06.198Z,455
2018-06-18T09:09:05.699Z,480
2018-06-18T09:10:05.949Z,470
2018-06-18T09:11:05.733Z,420
2018-06-18T09:12:06.259Z,330
2018-06-18T09:13:05.724Z,420
2018-06-18T09:14:06.241Z,290
2018-06-18T09:15:06.240Z,400
2018-06-18T09:16:06.125Z,395
2018-06-18T09:17:06.255Z,260
2018-06-18T09:18:06.261Z,405
2018-06-18T09:19:06.001Z,305
2018-06-18T09:20:06.278Z,290
2018-06-18T09:21:05.520Z,275
2018-06-18T09:22:05.780Z,275
2018-06-18T09:23:05.766Z,280
2018-06-18T09:24:06.057Z,290
2018-06-18T09:25:06.279Z,305
2018-06-18T09:26:06.081Z,330
2018-06-18T09:27:06.330Z,405
2018-06-18T09:28:06.277Z,330
2018-06-18T09:29:06.289Z,340
2018-06-18T09:30:06.557Z,455
2018-06-18T09:31:06.063Z,455
2018-06-18T09:32:06.466Z,455
2018-06-18T09:33:06.080Z,325
2018-06-18T09:34:06.081Z,460
2018-06-18T09:35:06.321Z,455
2018-06-18T09:36:06.355Z,450
2018-06-18T09:37:06.363Z,440
2018-06-18T09:38:05.848Z,445
2018-06-18T09:39:06.379Z,445
2018-06-18T09:40:06.091Z,450
2018-06-18T09:41:06.610Z,450
2018-06-18T09:42:06.097Z,450
2018-06-18T09:43:06.116Z,395
2018-06-18T09:44:06.105Z,430
2018-06-18T09:45:06.115Z,315
2018-06-18T09:46:06.639Z,400
2018-06-18T09:47:06.382Z,390
2018-06-18T09:48:05.928Z,375
2018-06-18T09:49:06.133Z,340
2018-06-18T09:50:06.647Z,225
2018-06-18T09:51:05.885Z,240
2018-06-18T09:52:06.155Z,365
2018-06-18T09:53:06.170Z,380
2018-06-18T09:54:06.169Z,360
2018-06-18T09:55:06.416Z,255
2018-06-18T09:56:06.191Z,245
2018-06-18T09:57:06.196Z,250
2018-06-18T09:58:06.186Z,245
2018-06-18T09:59:06.428Z,250
2018-06-18T10:00:06.696Z,255
2018-06-18T10:01:06.206Z,260
2018-06-18T10:02:06.704Z,260
2018-06-18T10:03:06.197Z,255
2018-06-18T10:04:06.713Z,255
2018-06-18T10:05:06.216Z,305
2018-06-18T10:06:06.206Z,265
2018-06-18T10:07:06.224Z,410
2018-06-18T10:08:06.488Z,410
2018-06-18T10:09:06.260Z,420
2018-06-18T10:10:06.494Z,420
2018-06-18T10:11:06.233Z,405
2018-06-18T10:12:06.747Z,395
2018-06-18T10:13:06.491Z,385
2018-06-18T10:14:05.994Z,385
2018-06-18T10:15:06.525Z,385
2018-06-18T10:16:06.274Z,390
2018-06-18T10:17:06.265Z,390
2018-06-18T10:18:06.253Z,390
2018-06-18T10:19:06.286Z,390
2018-06-18T10:20:06.256Z,380
2018-06-18T10:21:06.536Z,380
2018-06-18T10:22:06.780Z,375
2018-06-18T10:53:36.696Z,365
2018-06-18T10:54:36.431Z,280
2018-06-18T10:55:36.170Z,340
2018-06-18T10:56:36.678Z,255
2018-06-18T10:57:36.420Z,245
2018-06-18T10:58:36.468Z,245
2018-06-18T10:59:36.679Z,240
2018-06-18T11:00:36.200Z,235
2018-06-18T11:01:36.699Z,235
2018-06-18T11:02:36.440Z,225
2018-06-18T11:03:36.706Z,225
2018-06-18T11:04:36.546Z,225
2018-06-18T11:05:36.351Z,220
2018-06-18T11:06:36.701Z,230
2018-06-18T11:07:36.717Z,255
2018-06-18T11:08:36.468Z,275
2018-06-18T11:09:36.496Z,305
2018-06-18T11:10:36.970Z,290
2018-06-18T11:11:36.220Z,220
2018-06-18T11:12:36.478Z,225
2018-06-18T11:13:36.505Z,240
2018-06-18T11:14:36.256Z,210
2018-06-18T11:15:36.838Z,220
2018-06-18T11:16:37.542Z,295
2018-06-18T11:17:36.955Z,295
2018-06-18T11:18:36.784Z,255
2018-06-18T11:19:36.507Z,235
2018-06-18T11:20:36.800Z,220
2018-06-18T11:21:36.260Z,245
2018-06-18T11:22:36.794Z,310
2018-06-18T11:23:36.602Z,285
2018-06-18T11:24:37.213Z,310
2018-06-18T11:25:36.824Z,310
2018-06-18T11:26:37.841Z,320
2018-06-18T11:27:36.313Z,325
2018-06-18T11:28:37.375Z,320
2018-06-18T11:29:37.046Z,315
2018-06-18T11:30:37.061Z,325
2018-06-18T11:31:36.814Z,325
2018-06-18T11:32:36.806Z,325
2018-06-18T11:33:36.603Z,325
2018-06-18T11:34:37.071Z,320
2018-06-18T11:35:36.642Z,310
2018-06-18T11:36:36.385Z,310
2018-06-18T11:37:36.868Z,255
2018-06-18T11:38:36.618Z,245
2018-06-18T11:39:37.253Z,320
2018-06-18T11:40:36.953Z,325
2018-06-18T11:41:36.357Z,325
2018-06-18T11:42:36.627Z,350
2018-06-18T11:43:37.536Z,350
2018-06-18T11:44:36.610Z,355
2018-06-18T11:45:36.874Z,350
2018-06-18T11:46:36.871Z,325
2018-06-18T11:47:36.884Z,300
2018-06-18T11:48:36.926Z,300
2018-06-18T11:49:36.651Z,295
2018-06-18T11:50:36.904Z,285
2018-06-18T11:51:36.904Z,280
2018-06-18T11:52:37.196Z,275
2018-06-18T11:53:36.978Z,285
2018-06-18T11:54:36.927Z,265
2018-06-18T11:55:36.915Z,260
2018-06-18T11:56:36.700Z,260
2018-06-18T11:57:37.221Z,340
2018-06-18T11:58:37.192Z,345
2018-06-18T11:59:36.960Z,350
2018-06-18T12:00:36.969Z,315
2018-06-18T12:01:37.119Z,280
2018-06-18T12:02:36.700Z,275
2018-06-18T12:03:36.731Z,275
2018-06-18T12:04:37.242Z,270
2018-06-18T12:05:36.715Z,260
2018-06-18T12:06:36.470Z,250
2018-06-18T12:07:37.000Z,240
2018-06-18T12:08:36.739Z,290
2018-06-18T12:09:36.879Z,230
2018-06-18T12:10:36.933Z,265
2018-06-18T12:11:36.745Z,270
2018-06-18T12:12:37.283Z,260
2018-06-18T12:13:37.045Z,260
2018-06-18T12:14:37.341Z,260
2018-06-18T12:15:36.860Z,260
2018-06-18T12:16:36.751Z,260
2018-06-18T12:17:37.113Z,260
2018-06-18T12:18:37.082Z,265
2018-06-18T12:19:37.031Z,245
2018-06-18T12:20:37.044Z,265
2018-06-18T12:21:36.817Z,270
2018-06-18T12:22:37.041Z,270
2018-06-18T12:23:36.613Z,275
2018-06-18T12:24:37.313Z,275
2018-06-18T12:25:36.305Z,270
2018-06-18T12:26:37.073Z,270
2018-06-18T12:27:36.843Z,255
2018-06-18T12:28:36.851Z,240
2018-06-18T12:29:36.823Z,270
2018-06-18T12:30:37.130Z,265
2018-06-18T12:31:37.082Z,245
2018-06-18T12:32:36.845Z,255
2018-06-18T12:33:37.105Z,250
2018-06-18T12:34:36.892Z,235
2018-06-18T12:35:36.622Z,240
2018-06-18T12:36:36.886Z,270
2018-06-18T12:37:36.879Z,270
2018-06-18T12:38:36.897Z,325
2018-06-18T12:39:37.154Z,320
2018-06-18T12:40:37.197Z,305
2018-06-18T12:41:37.211Z,290
2018-06-18T12:42:36.903Z,280
2018-06-18T12:43:37.174Z,270
2018-06-18T12:44:36.653Z,265
2018-06-18T12:45:37.169Z,265
2018-06-18T12:46:36.822Z,260
2018-06-18T12:47:37.406Z,265
2018-06-18T12:48:36.941Z,260
2018-06-18T12:49:36.994Z,255
2018-06-18T12:50:37.003Z,250
2018-06-18T12:51:37.209Z,245
2018-06-18T12:52:37.203Z,240
2018-06-18T12:53:38.838Z,235
2018-06-18T12:54:36.680Z,235
2018-06-18T12:55:36.961Z,235
2018-06-18T12:56:37.206Z,235
2018-06-18T12:57:36.705Z,235
2018-06-18T12:58:37.781Z,235
2018-06-18T12:59:37.266Z,185
2018-06-18T13:00:36.972Z,180
2018-06-18T13:01:37.233Z,215
2018-06-18T13:02:37.494Z,190
2018-06-18T13:03:37.496Z,200
2018-06-18T13:04:37.034Z,210
2018-06-18T13:05:37.261Z,220
2018-06-18T13:06:37.524Z,210
2018-06-18T13:07:36.996Z,220
2018-06-18T13:08:37.542Z,240
2018-06-18T13:09:37.563Z,210
2018-06-18T13:10:36.770Z,215
2018-06-18T13:11:37.009Z,220
2018-06-18T13:12:37.012Z,235
2018-06-18T13:13:37.309Z,245
2018-06-18T13:14:37.019Z,255
2018-06-18T13:15:37.551Z,275
2018-06-18T13:16:37.300Z,285
2018-06-18T13:17:37.277Z,345
2018-06-18T13:18:37.051Z,345
2018-06-18T13:19:37.334Z,295
2018-06-18T13:20:37.338Z,340
2018-06-18T13:21:37.329Z,335
2018-06-18T13:22:37.584Z,335
2018-06-18T13:23:37.312Z,340
2018-06-18T13:24:37.086Z,330
2018-06-18T13:25:37.350Z,330
2018-06-18T13:26:37.352Z,335
2018-06-18T13:27:37.578Z,295
2018-06-18T13:28:37.370Z,280
2018-06-18T13:29:37.360Z,270
2018-06-18T13:30:37.750Z,255
2018-06-18T13:31:37.615Z,255
2018-06-18T13:32:37.347Z,240
2018-06-18T13:33:36.874Z,240
2018-06-18T13:34:37.117Z,245
2018-06-18T13:35:37.126Z,220
2018-06-18T13:36:37.369Z,210
2018-06-18T13:37:37.628Z,205
2018-06-18T13:38:37.173Z,190
2018-06-18T13:39:37.392Z,185
2018-06-18T13:40:37.197Z,185
2018-06-18T13:41:37.417Z,190
2018-06-18T13:42:37.432Z,195
2018-06-18T13:43:38.202Z,195
2018-06-18T13:44:37.157Z,200
2018-06-18T13:45:37.161Z,200
2018-06-18T13:46:37.431Z,215
2018-06-18T13:47:37.447Z,245
2018-06-18T13:48:37.442Z,260
2018-06-18T13:49:37.513Z,205
2018-06-18T13:50:37.706Z,205
2018-06-18T13:51:37.720Z,240
2018-06-18T13:52:37.962Z,250
2018-06-18T13:53:37.708Z,245
2018-06-18T13:54:37.712Z,250
2018-06-18T13:55:37.487Z,225
2018-06-18T13:56:37.248Z,190
2018-06-18T13:57:37.487Z,185
2018-06-18T13:58:37.448Z,195
2018-06-18T13:59:37.490Z,210
2018-06-18T14:00:37.575Z,225
2018-06-18T14:01:37.739Z,225
2018-06-18T14:02:37.589Z,205
2018-06-18T14:03:37.021Z,185
2018-06-18T14:04:37.795Z,220
2018-06-18T14:05:37.260Z,215
2018-06-18T14:06:37.516Z,225
2018-06-18T14:07:37.033Z,225
2018-06-18T14:08:37.308Z,220
2018-06-18T14:09:37.552Z,215
2018-06-18T14:10:37.552Z,210
2018-06-18T14:11:37.293Z,225
2018-06-18T14:12:37.035Z,190
2018-06-18T14:13:37.822Z,195
2018-06-18T14:14:38.342Z,200
2018-06-18T14:15:37.044Z,215
2018-06-18T14:16:37.807Z,250
2018-06-18T14:17:37.293Z,260
2018-06-18T14:18:37.311Z,255
2018-06-18T14:19:36.811Z,250
2018-06-18T14:20:37.573Z,250
2018-06-18T14:21:37.597Z,250
2018-06-18T14:22:37.619Z,210
2018-06-18T14:23:37.871Z,210
2018-06-18T14:24:37.592Z,210
2018-06-18T14:25:37.351Z,210
2018-06-18T14:26:37.851Z,200
2018-06-18T14:27:37.635Z,200
2018-06-18T14:28:37.351Z,200
2018-06-18T14:29:37.603Z,190
2018-06-18T14:30:38.017Z,190
2018-06-18T14:31:37.631Z,195
2018-06-18T14:32:38.152Z,200
2018-06-18T14:33:37.634Z,210
2018-06-18T14:34:38.685Z,245
2018-06-18T14:35:37.619Z,245
2018-06-18T14:36:37.821Z,245
2018-06-18T14:37:37.394Z,240
2018-06-18T14:38:37.652Z,240
2018-06-18T14:39:37.664Z,235
2018-06-18T14:40:37.420Z,230
2018-06-18T14:41:37.428Z,230
2018-06-18T14:42:37.528Z,225